sensor_id;sensor_type;location;lat;lon;timestamp;P1;durP1;ratioP1;P2;durP2;ratioP2
70014;SDS011;57358;51.094;6.760;2023-04-24T00:02:03;5.65;;;5.18;;
70014;SDS011;57358;51.094;6.760;2023-04-24T00:04:30;4.70;;;4.50;;
70014;SDS011;57358;51.094;6.760;2023-04-24T00:06:58;4.78;;;4.47;;
70014;SDS011;57358;51.094;6.760;2023-04-24T00:09:26;4.45;;;4.25;;
70014;SDS011;57358;51.094;6.760;2023-04-24T00:11:52;4.50;;;4.30;;
70014;SDS011;57358;51.094;6.760;2023-04-24T00:14:19;4.65;;;4.45;;
70014;SDS011;57358;51.094;6.760;2023-04-24T00:16:46;4.60;;;4.30;;
70014;SDS011;57358;51.094;6.760;2023-04-24T00:19:12;4.45;;;4.22;;
70014;SDS011;57358;51.094;6.760;2023-04-24T00:21:39;4.97;;;4.68;;
70014;SDS011;57358;51.094;6.760;2023-04-24T00:24:06;4.70;;;4.50;;
70014;SDS011;57358;51.094;6.760;2023-04-24T00:26:35;4.80;;;4.60;;
70014;SDS011;57358;51.094;6.760;2023-04-24T00:29:01;4.47;;;4.28;;
70014;SDS011;57358;51.094;6.760;2023-04-24T00:31:28;4.65;;;4.35;;
70014;SDS011;57358;51.094;6.760;2023-04-24T00:33:54;4.55;;;4.35;;
70014;SDS011;57358;51.094;6.760;2023-04-24T00:36:21;4.50;;;4.30;;
70014;SDS011;57358;51.094;6.760;2023-04-24T00:38:47;4.32;;;4.13;;
70014;SDS011;57358;51.094;6.760;2023-04-24T00:41:14;4.70;;;4.50;;
70014;SDS011;57358;51.094;6.760;2023-04-24T00:43:40;4.50;;;4.30;;
70014;SDS011;57358;51.094;6.760;2023-04-24T00:46:06;4.88;;;4.68;;
70014;SDS011;57358;51.094;6.760;2023-04-24T00:48:33;4.97;;;4.72;;
70014;SDS011;57358;51.094;6.760;2023-04-24T00:51:00;4.60;;;4.40;;
70014;SDS011;57358;51.094;6.760;2023-04-24T00:53:27;5.05;;;4.75;;
70014;SDS011;57358;51.094;6.760;2023-04-24T00:55:53;4.57;;;4.38;;
70014;SDS011;57358;51.094;6.760;2023-04-24T00:58:19;4.95;;;4.65;;
70014;SDS011;57358;51.094;6.760;2023-04-24T01:00:46;5.15;;;4.85;;
70014;SDS011;57358;51.094;6.760;2023-04-24T01:03:15;4.75;;;4.53;;
70014;SDS011;57358;51.094;6.760;2023-04-24T01:05:42;4.45;;;4.25;;
70014;SDS011;57358;51.094;6.760;2023-04-24T01:08:08;5.00;;;4.72;;
70014;SDS011;57358;51.094;6.760;2023-04-24T01:10:35;5.15;;;4.85;;
70014;SDS011;57358;51.094;6.760;2023-04-24T01:13:02;8.10;;;4.85;;
70014;SDS011;57358;51.094;6.760;2023-04-24T01:15:29;4.60;;;4.40;;
70014;SDS011;57358;51.094;6.760;2023-04-24T01:17:56;4.85;;;4.65;;
70014;SDS011;57358;51.094;6.760;2023-04-24T01:20:23;5.07;;;4.78;;
70014;SDS011;57358;51.094;6.760;2023-04-24T01:22:50;4.85;;;4.63;;
70014;SDS011;57358;51.094;6.760;2023-04-24T01:25:17;5.47;;;5.18;;
70014;SDS011;57358;51.094;6.760;2023-04-24T01:27:43;5.43;;;5.13;;
70014;SDS011;57358;51.094;6.760;2023-04-24T01:30:11;6.28;;;5.68;;
70014;SDS011;57358;51.094;6.760;2023-04-24T01:32:38;6.22;;;5.78;;
70014;SDS011;57358;51.094;6.760;2023-04-24T01:35:05;6.15;;;5.65;;
70014;SDS011;57358;51.094;6.760;2023-04-24T01:37:32;4.95;;;4.70;;
70014;SDS011;57358;51.094;6.760;2023-04-24T01:39:59;6.38;;;5.63;;
70014;SDS011;57358;51.094;6.760;2023-04-24T01:42:25;6.50;;;6.00;;
70014;SDS011;57358;51.094;6.760;2023-04-24T01:44:52;5.63;;;5.22;;
70014;SDS011;57358;51.094;6.760;2023-04-24T01:47:20;5.20;;;4.90;;
70014;SDS011;57358;51.094;6.760;2023-04-24T01:49:47;5.25;;;4.93;;
70014;SDS011;57358;51.094;6.760;2023-04-24T01:52:14;6.50;;;6.10;;
70014;SDS011;57358;51.094;6.760;2023-04-24T01:54:40;5.70;;;5.30;;
70014;SDS011;57358;51.094;6.760;2023-04-24T01:57:07;5.60;;;5.15;;
70014;SDS011;57358;51.094;6.760;2023-04-24T01:59:34;6.65;;;5.78;;
70014;SDS011;57358;51.094;6.760;2023-04-24T02:02:02;6.20;;;5.78;;
70014;SDS011;57358;51.094;6.760;2023-04-24T02:04:29;6.07;;;5.68;;
70014;SDS011;57358;51.094;6.760;2023-04-24T02:06:56;5.30;;;5.00;;
70014;SDS011;57358;51.094;6.760;2023-04-24T02:09:22;6.28;;;5.85;;
70014;SDS011;57358;51.094;6.760;2023-04-24T02:11:48;5.85;;;5.50;;
70014;SDS011;57358;51.094;6.760;2023-04-24T02:14:15;5.63;;;5.22;;
70014;SDS011;57358;51.094;6.760;2023-04-24T02:16:41;5.03;;;4.72;;
70014;SDS011;57358;51.094;6.760;2023-04-24T02:19:08;6.35;;;5.85;;
70014;SDS011;57358;51.094;6.760;2023-04-24T02:21:35;5.43;;;5.13;;
70014;SDS011;57358;51.094;6.760;2023-04-24T02:24:01;6.05;;;5.65;;
70014;SDS011;57358;51.094;6.760;2023-04-24T02:26:28;6.35;;;5.85;;
70014;SDS011;57358;51.094;6.760;2023-04-24T02:28:54;16.35;;;5.80;;
70014;SDS011;57358;51.094;6.760;2023-04-24T02:31:21;5.47;;;5.07;;
70014;SDS011;57358;51.094;6.760;2023-04-24T02:33:47;7.57;;;6.22;;
70014;SDS011;57358;51.094;6.760;2023-04-24T02:36:14;7.57;;;6.25;;
70014;SDS011;57358;51.094;6.760;2023-04-24T02:38:40;9.48;;;5.95;;
70014;SDS011;57358;51.094;6.760;2023-04-24T02:41:06;5.72;;;5.18;;
70014;SDS011;57358;51.094;6.760;2023-04-24T02:43:33;6.35;;;5.75;;
70014;SDS011;57358;51.094;6.760;2023-04-24T02:45:59;6.00;;;5.50;;
70014;SDS011;57358;51.094;6.760;2023-04-24T02:48:26;7.18;;;6.25;;
70014;SDS011;57358;51.094;6.760;2023-04-24T02:50:52;6.18;;;5.70;;
70014;SDS011;57358;51.094;6.760;2023-04-24T02:53:19;7.97;;;5.70;;
70014;SDS011;57358;51.094;6.760;2023-04-24T02:55:45;6.25;;;5.65;;
70014;SDS011;57358;51.094;6.760;2023-04-24T02:58:12;11.52;;;5.72;;
70014;SDS011;57358;51.094;6.760;2023-04-24T03:00:39;6.30;;;5.75;;
70014;SDS011;57358;51.094;6.760;2023-04-24T03:03:05;6.72;;;6.22;;
70014;SDS011;57358;51.094;6.760;2023-04-24T03:05:33;7.22;;;6.57;;
70014;SDS011;57358;51.094;6.760;2023-04-24T03:07:59;6.88;;;6.25;;
70014;SDS011;57358;51.094;6.760;2023-04-24T03:10:26;6.05;;;5.65;;
70014;SDS011;57358;51.094;6.760;2023-04-24T03:12:52;6.55;;;6.03;;
70014;SDS011;57358;51.094;6.760;2023-04-24T03:15:18;5.80;;;5.40;;
70014;SDS011;57358;51.094;6.760;2023-04-24T03:17:45;5.88;;;5.32;;
70014;SDS011;57358;51.094;6.760;2023-04-24T03:20:11;6.88;;;6.35;;
70014;SDS011;57358;51.094;6.760;2023-04-24T03:22:38;6.85;;;5.45;;
70014;SDS011;57358;51.094;6.760;2023-04-24T03:25:04;6.78;;;6.00;;
70014;SDS011;57358;51.094;6.760;2023-04-24T03:27:31;6.40;;;5.45;;
70014;SDS011;57358;51.094;6.760;2023-04-24T03:29:58;6.18;;;5.68;;
70014;SDS011;57358;51.094;6.760;2023-04-24T03:32:24;6.35;;;5.80;;
70014;SDS011;57358;51.094;6.760;2023-04-24T03:34:50;6.50;;;5.90;;
70014;SDS011;57358;51.094;6.760;2023-04-24T03:37:17;6.80;;;6.30;;
70014;SDS011;57358;51.094;6.760;2023-04-24T03:39:43;7.53;;;6.65;;
70014;SDS011;57358;51.094;6.760;2023-04-24T03:42:10;7.00;;;6.32;;
70014;SDS011;57358;51.094;6.760;2023-04-24T03:44:37;6.28;;;5.70;;
70014;SDS011;57358;51.094;6.760;2023-04-24T03:47:03;6.53;;;6.00;;
70014;SDS011;57358;51.094;6.760;2023-04-24T03:49:29;8.40;;;6.60;;
70014;SDS011;57358;51.094;6.760;2023-04-24T03:51:56;5.45;;;5.05;;
70014;SDS011;57358;51.094;6.760;2023-04-24T03:54:22;5.85;;;5.35;;
70014;SDS011;57358;51.094;6.760;2023-04-24T03:56:49;6.55;;;6.05;;
70014;SDS011;57358;51.094;6.760;2023-04-24T03:59:15;6.03;;;5.57;;
70014;SDS011;57358;51.094;6.760;2023-04-24T04:01:41;6.72;;;6.07;;
70014;SDS011;57358;51.094;6.760;2023-04-24T04:04:09;6.88;;;6.35;;
70014;SDS011;57358;51.094;6.760;2023-04-24T04:06:36;7.25;;;6.55;;
70014;SDS011;57358;51.094;6.760;2023-04-24T04:09:02;8.02;;;5.95;;
70014;SDS011;57358;51.094;6.760;2023-04-24T04:11:29;6.97;;;6.30;;
70014;SDS011;57358;51.094;6.760;2023-04-24T04:13:56;11.43;;;6.40;;
70014;SDS011;57358;51.094;6.760;2023-04-24T04:16:22;14.85;;;6.55;;
70014;SDS011;57358;51.094;6.760;2023-04-24T04:18:49;6.13;;;5.50;;
70014;SDS011;57358;51.094;6.760;2023-04-24T04:21:15;6.88;;;6.07;;
70014;SDS011;57358;51.094;6.760;2023-04-24T04:23:42;6.53;;;5.93;;
70014;SDS011;57358;51.094;6.760;2023-04-24T04:26:08;6.97;;;6.43;;
70014;SDS011;57358;51.094;6.760;2023-04-24T04:28:35;6.63;;;5.45;;
70014;SDS011;57358;51.094;6.760;2023-04-24T04:31:01;6.65;;;6.05;;
70014;SDS011;57358;51.094;6.760;2023-04-24T04:33:28;7.57;;;6.32;;
70014;SDS011;57358;51.094;6.760;2023-04-24T04:35:54;12.07;;;7.03;;
70014;SDS011;57358;51.094;6.760;2023-04-24T04:38:22;14.00;;;5.53;;
70014;SDS011;57358;51.094;6.760;2023-04-24T04:40:49;7.10;;;6.43;;
70014;SDS011;57358;51.094;6.760;2023-04-24T04:43:15;6.97;;;6.18;;
70014;SDS011;57358;51.094;6.760;2023-04-24T04:45:42;6.38;;;5.93;;
70014;SDS011;57358;51.094;6.760;2023-04-24T04:48:11;6.15;;;5.55;;
70014;SDS011;57358;51.094;6.760;2023-04-24T04:50:40;6.55;;;5.90;;
70014;SDS011;57358;51.094;6.760;2023-04-24T04:53:06;6.20;;;5.70;;
70014;SDS011;57358;51.094;6.760;2023-04-24T04:55:33;6.03;;;5.63;;
70014;SDS011;57358;51.094;6.760;2023-04-24T04:57:59;5.93;;;5.53;;
70014;SDS011;57358;51.094;6.760;2023-04-24T05:00:26;5.68;;;5.25;;
70014;SDS011;57358;51.094;6.760;2023-04-24T05:02:53;5.97;;;5.35;;
70014;SDS011;57358;51.094;6.760;2023-04-24T05:05:24;6.68;;;6.07;;
70014;SDS011;57358;51.094;6.760;2023-04-24T05:07:50;5.78;;;5.38;;
70014;SDS011;57358;51.094;6.760;2023-04-24T05:10:19;5.53;;;5.13;;
70014;SDS011;57358;51.094;6.760;2023-04-24T05:12:45;6.38;;;5.95;;
70014;SDS011;57358;51.094;6.760;2023-04-24T05:15:12;6.35;;;5.88;;
70014;SDS011;57358;51.094;6.760;2023-04-24T05:17:38;5.97;;;5.35;;
70014;SDS011;57358;51.094;6.760;2023-04-24T05:20:06;6.53;;;6.00;;
70014;SDS011;57358;51.094;6.760;2023-04-24T05:22:33;8.02;;;5.55;;
70014;SDS011;57358;51.094;6.760;2023-04-24T05:24:59;5.53;;;5.13;;
70014;SDS011;57358;51.094;6.760;2023-04-24T05:27:26;6.20;;;5.68;;
70014;SDS011;57358;51.094;6.760;2023-04-24T05:29:52;7.85;;;5.32;;
70014;SDS011;57358;51.094;6.760;2023-04-24T05:32:19;6.30;;;5.85;;
70014;SDS011;57358;51.094;6.760;2023-04-24T05:34:45;6.95;;;6.35;;
70014;SDS011;57358;51.094;6.760;2023-04-24T05:37:12;5.57;;;5.07;;
70014;SDS011;57358;51.094;6.760;2023-04-24T05:39:39;6.00;;;5.50;;
70014;SDS011;57358;51.094;6.760;2023-04-24T05:42:07;5.25;;;4.95;;
70014;SDS011;57358;51.094;6.760;2023-04-24T05:44:33;5.18;;;4.78;;
70014;SDS011;57358;51.094;6.760;2023-04-24T05:47:00;5.35;;;4.95;;
70014;SDS011;57358;51.094;6.760;2023-04-24T05:49:27;5.53;;;5.07;;
70014;SDS011;57358;51.094;6.760;2023-04-24T05:51:53;7.03;;;6.15;;
70014;SDS011;57358;51.094;6.760;2023-04-24T05:54:19;5.78;;;5.38;;
70014;SDS011;57358;51.094;6.760;2023-04-24T05:56:46;6.15;;;5.63;;
70014;SDS011;57358;51.094;6.760;2023-04-24T05:59:12;7.00;;;5.57;;
70014;SDS011;57358;51.094;6.760;2023-04-24T06:01:39;5.75;;;5.25;;
70014;SDS011;57358;51.094;6.760;2023-04-24T06:04:06;5.45;;;5.13;;
70014;SDS011;57358;51.094;6.760;2023-04-24T06:06:34;5.10;;;4.80;;
70014;SDS011;57358;51.094;6.760;2023-04-24T06:09:01;5.82;;;5.43;;
70014;SDS011;57358;51.094;6.760;2023-04-24T06:11:28;5.75;;;5.25;;
70014;SDS011;57358;51.094;6.760;2023-04-24T06:13:54;5.88;;;5.40;;
70014;SDS011;57358;51.094;6.760;2023-04-24T06:16:21;5.13;;;4.75;;
70014;SDS011;57358;51.094;6.760;2023-04-24T06:18:47;5.60;;;5.22;;
70014;SDS011;57358;51.094;6.760;2023-04-24T06:21:15;5.60;;;5.30;;
70014;SDS011;57358;51.094;6.760;2023-04-24T06:23:42;5.05;;;4.47;;
70014;SDS011;57358;51.094;6.760;2023-04-24T06:26:08;6.35;;;5.78;;
70014;SDS011;57358;51.094;6.760;2023-04-24T06:28:35;9.70;;;5.05;;
70014;SDS011;57358;51.094;6.760;2023-04-24T06:31:02;5.63;;;5.18;;
70014;SDS011;57358;51.094;6.760;2023-04-24T06:33:28;4.78;;;4.55;;
70014;SDS011;57358;51.094;6.760;2023-04-24T06:35:55;5.32;;;5.03;;
70014;SDS011;57358;51.094;6.760;2023-04-24T06:38:23;5.30;;;5.00;;
70014;SDS011;57358;51.094;6.760;2023-04-24T06:40:50;5.25;;;4.95;;
70014;SDS011;57358;51.094;6.760;2023-04-24T06:43:16;9.82;;;4.65;;
70014;SDS011;57358;51.094;6.760;2023-04-24T06:45:43;5.60;;;5.10;;
70014;SDS011;57358;51.094;6.760;2023-04-24T06:48:10;4.97;;;4.68;;
70014;SDS011;57358;51.094;6.760;2023-04-24T06:50:36;5.13;;;4.80;;
70014;SDS011;57358;51.094;6.760;2023-04-24T06:53:03;5.00;;;4.70;;
70014;SDS011;57358;51.094;6.760;2023-04-24T06:55:29;5.25;;;4.85;;
70014;SDS011;57358;51.094;6.760;2023-04-24T06:57:55;5.22;;;4.85;;
70014;SDS011;57358;51.094;6.760;2023-04-24T07:00:22;5.40;;;5.10;;
70014;SDS011;57358;51.094;6.760;2023-04-24T07:02:50;5.18;;;4.78;;
70014;SDS011;57358;51.094;6.760;2023-04-24T07:05:17;4.55;;;4.32;;
70014;SDS011;57358;51.094;6.760;2023-04-24T07:07:46;8.05;;;5.05;;
70014;SDS011;57358;51.094;6.760;2023-04-24T07:10:13;4.93;;;4.72;;
70014;SDS011;57358;51.094;6.760;2023-04-24T07:12:40;4.40;;;4.20;;
70014;SDS011;57358;51.094;6.760;2023-04-24T07:15:07;4.50;;;4.10;;
70014;SDS011;57358;51.094;6.760;2023-04-24T07:17:36;4.80;;;4.53;;
70014;SDS011;57358;51.094;6.760;2023-04-24T07:20:04;6.10;;;5.50;;
70014;SDS011;57358;51.094;6.760;2023-04-24T07:22:33;4.63;;;4.43;;
70014;SDS011;57358;51.094;6.760;2023-04-24T07:24:59;4.50;;;4.30;;
70014;SDS011;57358;51.094;6.760;2023-04-24T07:27:25;4.78;;;4.47;;
70014;SDS011;57358;51.094;6.760;2023-04-24T07:29:52;4.55;;;4.25;;
70014;SDS011;57358;51.094;6.760;2023-04-24T07:32:18;4.20;;;4.00;;
70014;SDS011;57358;51.094;6.760;2023-04-24T07:34:45;4.40;;;4.20;;
70014;SDS011;57358;51.094;6.760;2023-04-24T07:37:11;4.13;;;3.92;;
70014;SDS011;57358;51.094;6.760;2023-04-24T07:39:38;5.88;;;5.47;;
70014;SDS011;57358;51.094;6.760;2023-04-24T07:42:04;4.70;;;4.50;;
70014;SDS011;57358;51.094;6.760;2023-04-24T07:44:31;4.45;;;4.25;;
70014;SDS011;57358;51.094;6.760;2023-04-24T07:46:58;4.20;;;4.00;;
70014;SDS011;57358;51.094;6.760;2023-04-24T07:49:24;4.32;;;4.13;;
70014;SDS011;57358;51.094;6.760;2023-04-24T07:51:51;3.95;;;3.75;;
70014;SDS011;57358;51.094;6.760;2023-04-24T07:54:17;3.80;;;3.67;;
70014;SDS011;57358;51.094;6.760;2023-04-24T07:56:44;4.00;;;3.80;;
70014;SDS011;57358;51.094;6.760;2023-04-24T07:59:10;4.03;;;3.83;;
70014;SDS011;57358;51.094;6.760;2023-04-24T08:01:37;3.63;;;3.53;;
70014;SDS011;57358;51.094;6.760;2023-04-24T08:04:04;4.20;;;4.00;;
70014;SDS011;57358;51.094;6.760;2023-04-24T08:06:31;4.00;;;3.80;;
70014;SDS011;57358;51.094;6.760;2023-04-24T08:08:58;3.55;;;3.45;;
70014;SDS011;57358;51.094;6.760;2023-04-24T08:11:25;4.00;;;3.80;;
70014;SDS011;57358;51.094;6.760;2023-04-24T08:13:52;4.28;;;4.07;;
70014;SDS011;57358;51.094;6.760;2023-04-24T08:16:20;4.38;;;3.90;;
70014;SDS011;57358;51.094;6.760;2023-04-24T08:18:47;4.00;;;3.80;;
70014;SDS011;57358;51.094;6.760;2023-04-24T08:21:13;4.30;;;4.05;;
70014;SDS011;57358;51.094;6.760;2023-04-24T08:23:43;4.07;;;3.88;;
70014;SDS011;57358;51.094;6.760;2023-04-24T08:26:10;4.75;;;4.45;;
70014;SDS011;57358;51.094;6.760;2023-04-24T08:28:37;4.32;;;4.13;;
70014;SDS011;57358;51.094;6.760;2023-04-24T08:31:04;4.10;;;3.90;;
70014;SDS011;57358;51.094;6.760;2023-04-24T08:33:31;4.70;;;4.40;;
70014;SDS011;57358;51.094;6.760;2023-04-24T08:36:01;4.30;;;4.10;;
70014;SDS011;57358;51.094;6.760;2023-04-24T08:38:28;4.72;;;4.43;;
70014;SDS011;57358;51.094;6.760;2023-04-24T08:40:56;4.50;;;4.30;;
70014;SDS011;57358;51.094;6.760;2023-04-24T08:43:24;4.38;;;4.18;;
70014;SDS011;57358;51.094;6.760;2023-04-24T08:45:52;4.35;;;4.15;;
70014;SDS011;57358;51.094;6.760;2023-04-24T08:48:22;4.40;;;4.10;;
70014;SDS011;57358;51.094;6.760;2023-04-24T08:50:57;4.35;;;4.15;;
70014;SDS011;57358;51.094;6.760;2023-04-24T08:53:25;4.57;;;4.30;;
70014;SDS011;57358;51.094;6.760;2023-04-24T08:55:52;4.75;;;4.45;;
70014;SDS011;57358;51.094;6.760;2023-04-24T08:58:21;4.10;;;3.90;;
70014;SDS011;57358;51.094;6.760;2023-04-24T09:00:51;5.18;;;4.82;;
70014;SDS011;57358;51.094;6.760;2023-04-24T09:03:20;4.88;;;4.60;;
70014;SDS011;57358;51.094;6.760;2023-04-24T09:05:48;4.57;;;4.38;;
70014;SDS011;57358;51.094;6.760;2023-04-24T09:08:17;4.57;;;4.28;;
70014;SDS011;57358;51.094;6.760;2023-04-24T09:10:49;4.68;;;4.38;;
70014;SDS011;57358;51.094;6.760;2023-04-24T09:13:16;4.55;;;4.35;;
70014;SDS011;57358;51.094;6.760;2023-04-24T09:15:45;4.43;;;4.22;;
70014;SDS011;57358;51.094;6.760;2023-04-24T09:18:11;8.23;;;5.22;;
70014;SDS011;57358;51.094;6.760;2023-04-24T09:20:56;5.63;;;5.03;;
70014;SDS011;57358;51.094;6.760;2023-04-24T09:23:29;4.78;;;4.47;;
70014;SDS011;57358;51.094;6.760;2023-04-24T09:25:57;4.95;;;4.65;;
70014;SDS011;57358;51.094;6.760;2023-04-24T09:28:35;6.25;;;5.65;;
70014;SDS011;57358;51.094;6.760;2023-04-24T09:31:04;5.43;;;4.93;;
70014;SDS011;57358;51.094;6.760;2023-04-24T09:33:32;9.90;;;5.55;;
70014;SDS011;57358;51.094;6.760;2023-04-24T09:35:59;5.20;;;4.75;;
70014;SDS011;57358;51.094;6.760;2023-04-24T09:38:36;5.25;;;4.78;;
70014;SDS011;57358;51.094;6.760;2023-04-24T09:41:07;4.75;;;4.45;;
70014;SDS011;57358;51.094;6.760;2023-04-24T09:43:34;6.00;;;5.32;;
70014;SDS011;57358;51.094;6.760;2023-04-24T09:46:07;5.10;;;4.70;;
70014;SDS011;57358;51.094;6.760;2023-04-24T09:48:37;5.40;;;4.72;;
70014;SDS011;57358;51.094;6.760;2023-04-24T09:51:04;5.28;;;4.78;;
70014;SDS011;57358;51.094;6.760;2023-04-24T09:53:37;5.57;;;5.18;;
70014;SDS011;57358;51.094;6.760;2023-04-24T09:56:09;5.25;;;4.85;;
70014;SDS011;57358;51.094;6.760;2023-04-24T09:58:36;5.78;;;5.47;;
70014;SDS011;57358;51.094;6.760;2023-04-24T10:01:03;5.63;;;5.22;;
70014;SDS011;57358;51.094;6.760;2023-04-24T10:03:30;5.90;;;5.32;;
70014;SDS011;57358;51.094;6.760;2023-04-24T10:05:58;6.55;;;4.75;;
70014;SDS011;57358;51.094;6.760;2023-04-24T10:08:26;5.35;;;4.88;;
70014;SDS011;57358;51.094;6.760;2023-04-24T10:13:25;5.30;;;4.90;;
70014;SDS011;57358;51.094;6.760;2023-04-24T10:15:52;6.28;;;4.88;;
70014;SDS011;57358;51.094;6.760;2023-04-24T10:18:20;5.75;;;5.35;;
70014;SDS011;57358;51.094;6.760;2023-04-24T10:20:47;5.45;;;5.15;;
70014;SDS011;57358;51.094;6.760;2023-04-24T10:23:14;5.20;;;4.90;;
70014;SDS011;57358;51.094;6.760;2023-04-24T10:25:41;4.93;;;4.63;;
70014;SDS011;57358;51.094;6.760;2023-04-24T10:28:08;5.45;;;4.97;;
70014;SDS011;57358;51.094;6.760;2023-04-24T10:30:36;6.25;;;5.63;;
70014;SDS011;57358;51.094;6.760;2023-04-24T10:33:03;6.10;;;5.60;;
70014;SDS011;57358;51.094;6.760;2023-04-24T10:35:31;5.28;;;4.88;;
70014;SDS011;57358;51.094;6.760;2023-04-24T10:38:03;5.93;;;4.85;;
70014;SDS011;57358;51.094;6.760;2023-04-24T10:40:33;9.65;;;4.82;;
70014;SDS011;57358;51.094;6.760;2023-04-24T10:43:07;4.95;;;4.55;;
70014;SDS011;57358;51.094;6.760;2023-04-24T10:45:36;4.50;;;4.30;;
70014;SDS011;57358;51.094;6.760;2023-04-24T10:48:05;4.65;;;4.35;;
70014;SDS011;57358;51.094;6.760;2023-04-24T10:50:44;6.15;;;4.85;;
70014;SDS011;57358;51.094;6.760;2023-04-24T10:53:19;5.38;;;5.00;;
70014;SDS011;57358;51.094;6.760;2023-04-24T10:55:50;5.72;;;5.05;;
70014;SDS011;57358;51.094;6.760;2023-04-24T10:58:21;4.85;;;4.38;;
70014;SDS011;57358;51.094;6.760;2023-04-24T11:00:58;5.55;;;5.22;;
70014;SDS011;57358;51.094;6.760;2023-04-24T11:03:27;5.55;;;5.05;;
70014;SDS011;57358;51.094;6.760;2023-04-24T11:05:59;4.68;;;4.38;;
70014;SDS011;57358;51.094;6.760;2023-04-24T11:11:03;4.68;;;4.38;;
70014;SDS011;57358;51.094;6.760;2023-04-24T11:21:58;11.32;;;5.20;;
70014;SDS011;57358;51.094;6.760;2023-04-24T11:24:30;5.18;;;4.88;;
70014;SDS011;57358;51.094;6.760;2023-04-24T11:27:00;6.50;;;5.72;;
70014;SDS011;57358;51.094;6.760;2023-04-24T11:32:33;10.60;;;4.70;;
70014;SDS011;57358;51.094;6.760;2023-04-24T11:35:01;9.50;;;5.05;;
70014;SDS011;57358;51.094;6.760;2023-04-24T11:37:48;5.35;;;4.93;;
70014;SDS011;57358;51.094;6.760;2023-04-24T11:40:20;5.60;;;5.20;;
70014;SDS011;57358;51.094;6.760;2023-04-24T11:42:49;5.57;;;5.15;;
70014;SDS011;57358;51.094;6.760;2023-04-24T11:45:23;4.75;;;4.47;;
70014;SDS011;57358;51.094;6.760;2023-04-24T11:47:52;5.45;;;5.15;;
70014;SDS011;57358;51.094;6.760;2023-04-24T11:50:21;5.43;;;5.10;;
70014;SDS011;57358;51.094;6.760;2023-04-24T11:52:49;6.63;;;4.93;;
70014;SDS011;57358;51.094;6.760;2023-04-24T11:57:47;5.30;;;4.90;;
70014;SDS011;57358;51.094;6.760;2023-04-24T12:00:26;7.32;;;5.07;;
70014;SDS011;57358;51.094;6.760;2023-04-24T12:03:07;5.03;;;4.72;;
70014;SDS011;57358;51.094;6.760;2023-04-24T12:05:35;4.90;;;4.70;;
70014;SDS011;57358;51.094;6.760;2023-04-24T12:08:02;5.57;;;5.25;;
70014;SDS011;57358;51.094;6.760;2023-04-24T12:10:30;6.72;;;5.03;;
70014;SDS011;57358;51.094;6.760;2023-04-24T12:12:58;5.18;;;4.88;;
70014;SDS011;57358;51.094;6.760;2023-04-24T12:15:26;5.05;;;4.60;;
70014;SDS011;57358;51.094;6.760;2023-04-24T12:17:54;5.20;;;4.90;;
70014;SDS011;57358;51.094;6.760;2023-04-24T12:20:27;4.95;;;4.68;;
70014;SDS011;57358;51.094;6.760;2023-04-24T12:22:56;5.65;;;4.75;;
70014;SDS011;57358;51.094;6.760;2023-04-24T12:25:30;10.73;;;5.05;;
70014;SDS011;57358;51.094;6.760;2023-04-24T12:30:35;4.68;;;4.47;;
70014;SDS011;57358;51.094;6.760;2023-04-24T12:33:06;5.07;;;4.78;;
70014;SDS011;57358;51.094;6.760;2023-04-24T12:35:32;4.70;;;4.50;;
70014;SDS011;57358;51.094;6.760;2023-04-24T12:38:13;5.18;;;4.88;;
70014;SDS011;57358;51.094;6.760;2023-04-24T12:40:41;5.50;;;5.07;;
70014;SDS011;57358;51.094;6.760;2023-04-24T12:43:15;5.65;;;5.10;;
70014;SDS011;57358;51.094;6.760;2023-04-24T12:45:42;6.20;;;4.60;;
70014;SDS011;57358;51.094;6.760;2023-04-24T12:48:10;15.25;;;5.43;;
70014;SDS011;57358;51.094;6.760;2023-04-24T12:50:37;5.40;;;5.00;;
70014;SDS011;57358;51.094;6.760;2023-04-24T12:53:04;5.28;;;4.97;;
70014;SDS011;57358;51.094;6.760;2023-04-24T12:55:32;5.45;;;5.05;;
70014;SDS011;57358;51.094;6.760;2023-04-24T12:57:59;5.22;;;4.63;;
70014;SDS011;57358;51.094;6.760;2023-04-24T13:00:25;5.40;;;5.10;;
70014;SDS011;57358;51.094;6.760;2023-04-24T13:02:52;5.10;;;4.75;;
70014;SDS011;57358;51.094;6.760;2023-04-24T13:05:18;5.18;;;4.88;;
70014;SDS011;57358;51.094;6.760;2023-04-24T13:07:45;4.88;;;4.57;;
70014;SDS011;57358;51.094;6.760;2023-04-24T13:10:11;5.03;;;4.72;;
70014;SDS011;57358;51.094;6.760;2023-04-24T13:12:39;5.38;;;5.07;;
70014;SDS011;57358;51.094;6.760;2023-04-24T13:15:06;5.18;;;4.68;;
70014;SDS011;57358;51.094;6.760;2023-04-24T13:17:33;4.78;;;4.50;;
70014;SDS011;57358;51.094;6.760;2023-04-24T13:19:59;5.57;;;5.28;;
70014;SDS011;57358;51.094;6.760;2023-04-24T13:22:26;5.70;;;5.13;;
70014;SDS011;57358;51.094;6.760;2023-04-24T13:24:53;5.82;;;5.43;;
70014;SDS011;57358;51.094;6.760;2023-04-24T13:27:19;4.80;;;4.60;;
70014;SDS011;57358;51.094;6.760;2023-04-24T13:29:46;5.47;;;4.97;;
70014;SDS011;57358;51.094;6.760;2023-04-24T13:32:12;5.28;;;4.93;;
70014;SDS011;57358;51.094;6.760;2023-04-24T13:34:39;4.90;;;4.60;;
70014;SDS011;57358;51.094;6.760;2023-04-24T13:37:06;6.70;;;5.15;;
70014;SDS011;57358;51.094;6.760;2023-04-24T13:39:34;5.07;;;4.78;;
70014;SDS011;57358;51.094;6.760;2023-04-24T13:42:01;5.70;;;5.30;;
70014;SDS011;57358;51.094;6.760;2023-04-24T13:44:30;7.20;;;4.72;;
70014;SDS011;57358;51.094;6.760;2023-04-24T13:46:57;5.00;;;4.70;;
70014;SDS011;57358;51.094;6.760;2023-04-24T13:49:24;9.48;;;4.82;;
70014;SDS011;57358;51.094;6.760;2023-04-24T13:51:51;5.15;;;4.75;;
70014;SDS011;57358;51.094;6.760;2023-04-24T13:54:18;6.28;;;5.43;;
70014;SDS011;57358;51.094;6.760;2023-04-24T13:56:45;21.80;;;5.15;;
70014;SDS011;57358;51.094;6.760;2023-04-24T13:59:14;5.47;;;5.00;;
70014;SDS011;57358;51.094;6.760;2023-04-24T14:01:41;5.35;;;4.82;;
70014;SDS011;57358;51.094;6.760;2023-04-24T14:04:07;6.65;;;5.25;;
70014;SDS011;57358;51.094;6.760;2023-04-24T14:06:34;5.45;;;5.15;;
70014;SDS011;57358;51.094;6.760;2023-04-24T14:09:00;5.10;;;4.80;;
70014;SDS011;57358;51.094;6.760;2023-04-24T14:11:27;5.30;;;5.00;;
70014;SDS011;57358;51.094;6.760;2023-04-24T14:13:54;5.40;;;5.10;;
70014;SDS011;57358;51.094;6.760;2023-04-24T14:16:22;5.13;;;4.82;;
70014;SDS011;57358;51.094;6.760;2023-04-24T14:18:49;5.00;;;4.70;;
70014;SDS011;57358;51.094;6.760;2023-04-24T14:21:17;6.25;;;5.70;;
70014;SDS011;57358;51.094;6.760;2023-04-24T14:23:44;4.88;;;4.57;;
70014;SDS011;57358;51.094;6.760;2023-04-24T14:26:10;5.63;;;4.93;;
70014;SDS011;57358;51.094;6.760;2023-04-24T14:28:37;7.80;;;4.80;;
70014;SDS011;57358;51.094;6.760;2023-04-24T14:31:03;4.50;;;4.30;;
70014;SDS011;57358;51.094;6.760;2023-04-24T14:33:30;5.47;;;5.10;;
70014;SDS011;57358;51.094;6.760;2023-04-24T14:35:56;5.15;;;4.85;;
70014;SDS011;57358;51.094;6.760;2023-04-24T14:38:23;5.20;;;4.80;;
70014;SDS011;57358;51.094;6.760;2023-04-24T14:40:49;4.82;;;4.63;;
70014;SDS011;57358;51.094;6.760;2023-04-24T14:43:19;5.80;;;5.22;;
70014;SDS011;57358;51.094;6.760;2023-04-24T14:45:45;5.95;;;4.97;;
70014;SDS011;57358;51.094;6.760;2023-04-24T14:48:12;5.90;;;5.40;;
70014;SDS011;57358;51.094;6.760;2023-04-24T14:50:38;12.05;;;5.03;;
70014;SDS011;57358;51.094;6.760;2023-04-24T14:53:05;5.25;;;4.95;;
70014;SDS011;57358;51.094;6.760;2023-04-24T14:55:31;5.28;;;4.95;;
70014;SDS011;57358;51.094;6.760;2023-04-24T14:57:59;5.55;;;5.20;;
70014;SDS011;57358;51.094;6.760;2023-04-24T15:00:25;5.43;;;4.88;;
70014;SDS011;57358;51.094;6.760;2023-04-24T15:02:52;5.28;;;4.88;;
70014;SDS011;57358;51.094;6.760;2023-04-24T15:05:19;4.88;;;4.57;;
70014;SDS011;57358;51.094;6.760;2023-04-24T15:07:46;4.70;;;4.50;;
70014;SDS011;57358;51.094;6.760;2023-04-24T15:10:12;5.22;;;4.80;;
70014;SDS011;57358;51.094;6.760;2023-04-24T15:12:38;4.78;;;4.57;;